createdAt,value
2023-04-15T00:04:37.509Z,11.00
2023-04-15T00:19:40.928Z,11.00
2023-04-15T00:34:43.571Z,10.90
2023-04-15T01:04:49.887Z,11.50
2023-04-15T01:19:53.081Z,11.60
2023-04-15T01:34:55.647Z,10.90
2023-04-15T01:49:58.207Z,10.80
2023-04-15T02:05:00.818Z,11.40
2023-04-15T02:35:09.308Z,12.80
2023-04-15T02:50:13.325Z,11.80
2023-04-15T03:05:16.262Z,12.70
2023-04-15T03:20:19.717Z,11.60
2023-04-15T03:35:22.674Z,10.40
2023-04-15T03:50:26.009Z,10.30
2023-04-15T04:05:28.672Z,9.80
2023-04-15T04:35:37.726Z,3.10
2023-04-15T04:50:40.474Z,2.20
2023-04-15T05:20:51.309Z,1.90
2023-04-15T05:35:56.617Z,2.50
2023-04-15T05:50:59.472Z,2.40
2023-04-15T06:06:02.723Z,2.60
2023-04-15T06:21:05.754Z,2.50
2023-04-15T06:36:08.483Z,2.30
2023-04-15T06:51:11.891Z,3.80
2023-04-15T07:06:14.967Z,2.30
2023-04-15T07:21:17.889Z,2.00
2023-04-15T07:36:20.868Z,2.70
2023-04-15T07:51:23.642Z,1.50
2023-04-15T08:06:27.471Z,1.60
2023-04-15T08:21:31.073Z,1.50
2023-04-15T08:36:33.784Z,1.60
2023-04-15T08:51:36.597Z,0.90
2023-04-15T09:06:40.298Z,0.90
2023-04-15T09:21:47.751Z,0.80
2023-04-15T09:36:56.317Z,0.40
2023-04-15T09:52:06.106Z,1.10
2023-04-15T10:07:09.982Z,0.70
2023-04-15T10:22:14.382Z,0.70
2023-04-15T10:37:34.767Z,0.60
2023-04-15T10:52:43.853Z,0.50
2023-04-15T11:07:49.173Z,0.60
2023-04-15T11:23:14.495Z,0.60
2023-04-15T11:38:19.618Z,0.80
2023-04-15T11:53:23.464Z,1.10
2023-04-15T12:08:26.082Z,0.80
2023-04-15T12:23:28.629Z,0.80
2023-04-15T12:38:31.825Z,0.80
2023-04-15T12:53:34.398Z,0.60
2023-04-15T13:08:42.563Z,0.90
2023-04-15T13:23:50.372Z,0.80
2023-04-15T13:38:53.094Z,0.80
2023-04-15T13:54:00.894Z,0.90
2023-04-15T14:09:04.251Z,1.20
2023-04-15T14:24:07.314Z,1.30
2023-04-15T14:39:10.937Z,1.40
2023-04-15T14:54:13.621Z,1.90
2023-04-15T15:09:16.679Z,2.10
2023-04-15T15:24:19.292Z,1.70
2023-04-15T15:39:23.517Z,2.20
2023-04-15T15:54:26.527Z,1.80
2023-04-15T16:09:29.155Z,1.60
2023-04-15T16:24:34.893Z,1.60
2023-04-15T16:39:37.783Z,2.20
2023-04-15T16:54:43.866Z,3.20
2023-04-15T17:09:46.650Z,4.10
2023-04-15T17:24:49.541Z,7.40
2023-04-15T17:39:57.524Z,4.70
2023-04-15T17:55:00.538Z,8.20
2023-04-15T18:10:03.763Z,10.80
2023-04-15T18:25:07.109Z,11.30
2023-04-15T18:40:10.586Z,13.80
2023-04-15T18:55:13.410Z,14.00
2023-04-15T19:10:16.194Z,14.90
2023-04-15T19:25:18.885Z,14.90
2023-04-15T20:10:27.283Z,19.50
2023-04-15T20:25:29.949Z,16.40
2023-04-15T20:40:33.725Z,16.00
2023-04-15T20:55:36.314Z,16.40
2023-04-15T21:10:40.374Z,15.40
2023-04-15T21:25:43.116Z,15.60
2023-04-15T22:10:51.009Z,15.90
2023-04-15T23:11:01.381Z,16.00
2023-04-15T23:26:04.391Z,15.60
2023-04-15T23:41:07.056Z,18.20
2023-04-15T23:56:09.876Z,21.40
